Latest Weather Observations for Nhill Aerodrome

IDV60801

Issued at 9:02 pm EST Wednesday 5 August 2020 (issued every 10 minutes, with the page automatically refreshed every 10 minutes)

About weather observations | Map of weather stations | Latest weather observations for VIC | Other Formats
Station Details ID: 078015 Name: NHILL AERODROME Lat: -36.31 Lon: 141.65 Height: 138.9 m
Data from the previous 72 hours. | See also: Recent months at Nhill Aerodrome
Date/Time
EST
Temp
°C
App
Temp
°C
Dew
Point
°C
Rel
Hum
%
Delta-T
°C
Wind Press
QNH
hPa
Press
MSL
hPa
Rain since
9am
mm
Dir  Spd
km/h
Gust
km/h
Spd
kts
Gust
kts
05/09:00pm 3.7 -1.3 1.6 86 0.8 SSE 17 19 9 10 1019.7 1019.9 0.0
05/08:30pm 3.9 -0.4 0.8 80 1.2 SSE 13 13 7 7 1020.1 1020.3 0.0
05/08:00pm 4.8 1.3 1.5 79 1.3 SSE 9 11 5 6 1020.1 1020.3 0.0
05/07:30pm 5.2 0.9 1.3 76 1.5 SSE 13 17 7 9 1020.0 1020.2 0.0
05/07:00pm 6.5 2.6 1.4 70 2.1 S 11 15 6 8 1019.9 1020.1 0.0
05/06:30pm 8.2 4.7 1.1 61 2.9 SW 9 13 5 7 1019.7 1019.9 0.0
05/06:00pm 9.2 5.2 0.6 55 3.5 SW 11 15 6 8 1019.6 1019.8 0.0
05/05:30pm 9.9 5.5 0.3 51 3.9 SW 13 17 7 9 1019.3 1019.5 0.0
05/05:00pm 10.3 5.0 -0.8 46 4.4 SW 17 20 9 11 1019.3 1019.5 0.0
05/04:30pm 10.6 4.9 -0.8 45 4.6 SSW 19 22 10 12 1018.9 1019.1 0.0
05/04:00pm 10.7 5.4 -0.4 46 4.5 S 17 20 9 11 1019.0 1019.2 0.0
05/03:30pm 10.5 3.9 -0.3 47 4.4 SSW 24 32 13 17 1018.8 1019.0 0.0
05/03:00pm 11.4 5.7 -0.4 44 4.8 S 19 24 10 13 1018.7 1018.9 0.0
05/02:30pm 11.6 5.7 -0.5 43 4.9 SW 20 30 11 16 1018.6 1018.8 0.0
05/02:00pm 11.2 5.5 -0.6 44 4.8 SSW 19 26 10 14 1019.0 1019.2 0.0
05/01:30pm 10.8 4.2 -0.3 46 4.5 SSW 24 32 13 17 1019.4 1019.6 0.0
05/01:00pm 10.9 4.4 0.6 49 4.3 SSW 24 32 13 17 1019.7 1019.9 0.0
05/12:30pm 10.5 4.4 0.3 49 4.2 SSW 22 30 12 16 1020.2 1020.4 0.0
05/12:00pm 10.4 3.4 -0.4 47 4.3 SSW 26 33 14 18 1020.5 1020.7 0.0
05/11:30am 10.2 4.2 1.1 53 3.8 SSW 22 30 12 16 1020.7 1020.8 0.0
05/11:00am 9.5 3.9 1.4 57 3.4 SSW 20 26 11 14 1020.9 1021.0 0.0
05/10:30am 8.8 4.1 3.0 67 2.5 SSW 17 20 9 11 1021.1 1021.2 0.0
05/10:00am 7.3 3.5 3.9 79 1.5 SSW 13 17 7 9 1021.2 1021.3 0.0
05/09:30am 4.9 1.8 3.6 91 0.5 WSW 9 11 5 6 1021.1 1021.2 0.0
05/09:00am 2.3 -0.8 1.3 93 0.4 WNW 7 9 4 5 1021.0 1021.1 0.0
05/08:30am 0.3 -2.9 -0.5 94 0.3 SSW 6 7 3 4 1020.5 1020.7 0.0
05/08:00am -0.5 -4.0 -1.5 93 0.3 SSW 7 9 4 5 1020.2 1020.4 0.0
05/07:30am -0.1 -3.4 -1.1 93 0.4 NW 6 7 3 4 1020.2 1020.4 0.0
05/07:00am -0.5 -4.0 -1.5 93 0.3 WNW 7 9 4 5 1020.0 1020.2 0.0
05/06:30am -0.8 -4.7 -1.8 93 0.3 NW 9 11 5 6 1019.6 1019.8 0.0
05/06:00am -1.0 -5.0 -2.1 92 0.3 WNW 9 11 5 6 1019.4 1019.6 0.0
05/05:30am -0.1 -4.0 -1.2 92 0.4 S 9 13 5 7 1018.8 1019.0 0.0
05/05:00am 0.0 -4.3 -1.3 91 0.5 S 11 13 6 7 1018.8 1019.0 0.0
05/04:30am 0.9 -2.3 -0.4 91 0.5 SSW 6 7 3 4 1018.9 1019.1 0.0
05/04:00am 0.7 -2.7 -0.6 91 0.5 SSW 7 9 4 5 1018.8 1019.0 0.0
05/03:30am 0.8 -2.4 -0.6 90 0.5 SW 6 9 3 5 1019.1 1019.3 0.0
05/03:00am 0.9 -2.5 -0.7 89 0.6 SW 7 11 4 6 1019.2 1019.4 0.0
05/02:30am 0.9 -2.3 -0.7 89 0.6 SW 6 7 3 4 1019.5 1019.7 0.0
05/02:00am 0.9 -2.9 -0.9 88 0.6 WSW 9 9 5 5 1019.6 1019.8 0.0
05/01:30am 1.1 -2.3 -0.8 87 0.7 WSW 7 9 4 5 1019.9 1020.1 0.0
05/01:00am 0.6 -2.9 -1.5 86 0.8 SW 7 7 4 4 1020.0 1020.2 0.0
05/12:30am 1.5 -1.9 -0.6 86 0.8 WSW 7 11 4 6 1019.9 1020.1 0.0
05/12:00am 1.5 -1.9 -0.6 86 0.8 WNW 7 9 4 5 1020.0 1020.2 0.0
 
Date/Time
EST
Temp
°C
App
Temp
°C
Dew
Point
°C
Rel
Hum
%
Delta-T
°C
Wind Press
QNH
hPa
Press
MSL
hPa
Rain since
9am
mm
Dir  Spd
km/h
Gust
km/h
Spd
kts
Gust
kts
04/11:30pm 0.9 -2.6 -1.2 86 0.7 WNW 7 9 4 5 1020.0 1020.2 0.0
04/11:00pm 1.2 -2.6 -1.0 85 0.8 WNW 9 11 5 6 1020.0 1020.2 0.0
04/10:30pm 2.5 -1.2 0.1 84 0.9 WNW 9 9 5 5 1020.3 1020.5 0.0
04/10:00pm 2.3 -0.8 0.0 85 0.9 W 6 7 3 4 1020.2 1020.4 0.0
04/09:30pm 2.7 -0.6 0.4 85 0.9 W 7 9 4 5 1020.2 1020.4 0.0
04/09:00pm 2.5 -0.6 -0.1 83 1.0 WSW 6 7 3 4 1019.8 1020.0 0.0
04/08:30pm 3.8 0.6 0.7 80 1.2 WSW 7 9 4 5 1019.6 1019.8 0.0
04/08:00pm 4.2 0.7 1.1 80 1.2 WSW 9 9 5 5 1019.3 1019.5 0.0
04/07:30pm 4.6 1.2 1.6 81 1.2 SW 9 11 5 6 1019.0 1019.2 0.0
04/07:00pm 4.1 0.5 0.6 78 1.3 WSW 9 13 5 7 1018.9 1019.1 0.0
04/06:30pm 6.4 2.3 2.5 76 1.6 SW 13 15 7 8 1018.7 1018.9 0.0
04/06:00pm 6.6 3.0 2.7 76 1.6 SSW 11 13 6 7 1018.5 1018.7 0.0
04/05:30pm 7.8 3.4 2.7 70 2.2 SW 15 20 8 11 1018.3 1018.5 0.0
04/05:00pm 8.5 3.8 3.1 69 2.3 SW 17 24 9 13 1018.2 1018.4 0.0
04/04:30pm 8.4 2.8 3.7 72 2.0 S 22 32 12 17 1018.0 1018.2 0.0
04/04:00pm 8.0 -0.1 3.3 72 2.0 S 35 44 19 24 1018.2 1018.4 0.0
04/03:51pm 8.6 1.7 2.8 67 2.5 SSW 28 46 15 25 1018.0 1018.2 0.0
04/03:30pm 9.6 3.1 2.5 61 3.0 S 26 30 14 16 1017.6 1017.8 0.0
04/03:00pm 9.9 2.6 2.5 60 3.2 S 30 37 16 20 1017.7 1017.9 0.0
04/02:30pm 8.5 0.3 2.9 68 2.4 S 35 50 19 27 1017.7 1017.9 0.0
04/02:19pm 7.7 -2.6 2.8 71 2.1 S 46 65 25 35 1017.8 1018.0 0.0
04/02:12pm 7.8 -1.6 2.3 68 2.3 SSW 41 65 22 35 1017.7 1017.9 0.0
04/02:08pm 10.9 3.1 1.4 52 4.0 SSW 32 59 17 32 1017.6 1017.8 0.0
04/02:00pm 11.3 3.7 0.4 47 4.5 SW 30 44 16 24 1017.4 1017.6 0.0
04/01:30pm 11.2 3.8 2.0 53 3.9 SW 30 43 16 23 1017.6 1017.8 0.0
04/01:00pm 11.2 2.7 1.2 50 4.2 SSW 35 46 19 25 1017.9 1018.1 0.0
04/12:30pm 10.5 3.0 1.3 53 3.9 SW 30 41 16 22 1018.1 1018.3 0.0
04/12:00pm 10.2 2.3 0.8 52 3.9 SW 32 44 17 24 1018.4 1018.6 0.0
04/11:30am 9.8 1.8 1.5 56 3.5 SW 33 50 18 27 1018.6 1018.8 0.0
04/11:29am 9.6 1.5 1.3 56 3.5 SW 33 50 18 27 1018.5 1018.7 0.0
04/11:00am 8.7 3.0 3.1 68 2.4 WSW 22 32 12 17 1018.6 1018.8 0.0
04/10:30am 7.5 2.1 2.4 70 2.1 WSW 20 28 11 15 1018.6 1018.8 0.0
04/10:00am 6.3 1.0 1.8 73 1.8 W 19 24 10 13 1018.5 1018.7 0.0
04/09:30am 5.0 1.0 2.9 86 0.9 NW 13 17 7 9 1018.2 1018.4 0.0
04/09:00am 2.6 -1.6 1.7 94 0.4 NW 13 17 7 9 1017.9 1018.1 0.2
04/08:30am 1.3 -2.7 0.6 95 0.3 NW 11 13 6 7 1017.7 1017.9 0.2
04/08:00am 0.6 -3.5 -0.3 94 0.3 NW 11 13 6 7 1017.6 1017.8 0.2
04/07:30am 0.6 -3.5 -0.3 94 0.3 NW 11 11 6 6 1017.3 1017.5 0.2
04/07:00am 0.7 -2.6 -0.2 94 0.3 WNW 7 9 4 5 1017.1 1017.3 0.2
04/06:30am 1.2 -2.5 0.2 93 0.4 W 9 11 5 6 1016.8 1017.0 0.2
04/06:00am 1.9 -2.4 0.9 93 0.4 WSW 13 15 7 8 1016.7 1016.9 0.2
04/05:30am 2.3 -2.0 1.1 92 0.5 WSW 13 17 7 9 1016.5 1016.7 0.2
04/05:00am 2.8 -1.4 1.6 92 0.5 WSW 13 15 7 8 1016.4 1016.6 0.2
04/04:30am 3.7 -0.4 2.4 91 0.5 WSW 13 17 7 9 1016.3 1016.5 0.2
04/04:00am 4.9 1.0 3.6 91 0.5 SW 13 17 7 9 1016.2 1016.4 0.2
04/03:30am 5.1 0.5 3.8 91 0.5 SW 17 24 9 13 1016.2 1016.4 0.2
04/03:00am 5.4 -0.1 4.2 92 0.5 SSW 22 33 12 18 1016.2 1016.4 0.2
04/02:30am 5.3 0.8 4.1 92 0.5 SW 17 26 9 14 1016.1 1016.3 0.2
04/02:00am 5.4 0.4 4.4 93 0.4 WSW 20 28 11 15 1015.9 1016.1 0.2
04/01:30am 3.4 -0.6 2.8 96 0.2 WNW 13 15 7 8 1015.7 1015.9 0.2
04/01:00am 3.4 -0.2 2.8 96 0.2 NW 11 13 6 7 1015.7 1015.9 0.2
04/12:30am 3.1 -1.0 2.4 95 0.3 NW 13 15 7 8 1015.7 1015.9 0.0
04/12:00am 3.5 -0.1 2.8 95 0.3 NW 11 13 6 7 1015.8 1016.0 0.0
 
Date/Time
EST
Temp
°C
App
Temp
°C
Dew
Point
°C
Rel
Hum
%
Delta-T
°C
Wind Press
QNH
hPa
Press
MSL
hPa
Rain since
9am
mm
Dir  Spd
km/h
Gust
km/h
Spd
kts
Gust
kts
03/11:30pm 3.7 0.1 2.8 94 0.4 NW 11 13 6 7 1015.9 1016.1 0.0
03/11:00pm 4.6 1.5 3.6 93 0.4 NW 9 11 5 6 1016.1 1016.3 0.0
03/10:30pm 5.6 2.7 4.6 93 0.4 WNW 9 11 5 6 1016.0 1016.2 0.0
03/10:00pm 5.7 2.4 4.3 91 0.6 W 11 13 6 7 1015.9 1016.1 0.0
03/09:30pm 6.5 3.3 5.0 90 0.7 W 11 11 6 6 1015.9 1016.1 0.0
03/09:00pm 7.5 4.1 5.8 89 0.8 WSW 13 17 7 9 1016.1 1016.3 0.0
03/08:30pm 7.6 2.1 6.1 90 0.7 SW 24 32 13 17 1016.2 1016.4 0.0
03/08:00pm 8.6 4.0 6.6 87 0.9 SW 20 28 11 15 1015.9 1016.1 0.0
03/07:30pm 9.0 5.3 7.8 92 0.6 SW 17 22 9 12 1015.6 1015.8 0.0
03/07:00pm 9.0 5.3 7.9 93 0.5 SW 17 22 9 12 1015.4 1015.6 0.0
03/06:30pm 9.3 5.6 8.1 92 0.6 WSW 17 22 9 12 1015.2 1015.3 0.0
03/06:00pm 10.1 5.4 7.7 85 1.2 SW 22 30 12 16 1015.0 1015.1 0.0
03/05:30pm 11.1 5.1 7.0 76 2.0 SW 28 39 15 21 1014.8 1014.9 0.0
03/05:00pm 12.7 8.1 5.6 62 3.3 WSW 19 24 10 13 1014.6 1014.7 0.0
03/04:30pm 13.1 8.1 4.8 57 3.9 W 20 30 11 16 1014.7 1014.8 0.0
03/04:00pm 13.9 9.1 4.8 54 4.2 W 19 24 10 13 1014.7 1014.8 0.0
03/03:30pm 13.7 9.0 5.3 57 4.0 W 19 24 10 13 1015.1 1015.2 0.0
03/03:00pm 14.2 9.2 4.8 53 4.4 WSW 20 28 11 15 1015.3 1015.5 0.0
03/02:30pm 13.4 8.4 4.8 56 4.0 WSW 20 26 11 14 1015.5 1015.7 0.0
03/02:00pm 13.9 9.1 4.8 54 4.2 W 19 24 10 13 1015.7 1015.9 0.0
03/01:30pm 13.6 8.8 4.5 54 4.2 WSW 19 28 10 15 1016.2 1016.4 0.0
03/01:00pm 12.9 9.2 4.6 57 3.8 WSW 13 22 7 12 1016.6 1016.8 0.0
03/12:30pm 12.8 8.0 4.8 58 3.7 SW 19 26 10 14 1017.3 1017.5 0.0
03/12:00pm 12.2 7.3 4.2 58 3.6 WSW 19 26 10 14 1017.8 1018.0 0.0
03/11:30am 11.4 6.3 3.2 57 3.6 SW 19 26 10 14 1018.1 1018.3 0.0
03/11:00am 11.4 7.3 4.2 61 3.2 SSW 15 19 8 10 1018.5 1018.7 0.0
03/10:30am 10.3 7.1 6.8 79 1.7 SW 13 17 7 9 1018.7 1018.9 0.0
03/10:00am 8.4 6.2 8.0 97 0.2 WSW 9 13 5 7 1018.9 1019.1 0.0
03/09:30am 6.3 4.2 5.9 97 0.2 S 6 7 3 4 1019.1 1019.3 0.0
03/09:00am 5.6 4.5 5.2 97 0.2 CALM 0 0 0 0 1019.1 1019.3 0.0
03/08:30am 4.8 3.5 4.2 96 0.3 CALM 0 0 0 0 1019.2 1019.4 0.0
03/08:00am 4.4 2.7 3.8 96 0.3 S 2 6 1 3 1019.2 1019.4 0.0
03/07:30am 4.4 1.9 3.8 96 0.3 S 6 7 3 4 1019.0 1019.2 0.0
03/07:00am 4.3 1.8 3.7 96 0.3 S 6 7 3 4 1019.1 1019.3 0.0
03/06:30am 4.2 1.5 3.6 96 0.2 S 7 9 4 5 1019.0 1019.2 0.0
03/06:00am 4.3 1.6 3.7 96 0.3 S 7 9 4 5 1018.9 1019.1 0.0
03/05:30am 4.1 1.4 3.5 96 0.2 S 7 9 4 5 1018.8 1019.0 0.0
03/05:00am 4.1 1.4 3.5 96 0.2 S 7 9 4 5 1018.7 1018.9 0.0
03/04:30am 3.7 0.9 3.0 95 0.3 S 7 9 4 5 1018.7 1018.9 0.0
03/04:00am 3.9 0.7 3.2 95 0.3 S 9 11 5 6 1018.9 1019.1 0.0
03/03:30am 4.5 2.0 3.8 95 0.3 SSE 6 7 3 4 1018.9 1019.1 0.0
03/03:00am 5.1 2.7 4.4 95 0.3 SSE 6 7 3 4 1019.1 1019.3 0.0
03/02:30am 5.2 2.3 4.5 95 0.3 SSE 9 11 5 6 1019.2 1019.4 0.0
03/02:00am 4.3 0.8 3.4 94 0.4 S 11 13 6 7 1019.5 1019.7 0.0
03/01:30am 5.5 2.6 4.6 94 0.4 S 9 11 5 6 1019.7 1019.9 0.0
03/01:00am 5.7 2.8 4.7 93 0.4 S 9 11 5 6 1019.6 1019.8 0.0
03/12:30am 5.4 2.4 4.2 92 0.5 SSE 9 9 5 5 1019.7 1019.9 0.0
03/12:00am 5.9 3.0 4.5 91 0.6 SE 9 9 5 5 1019.9 1020.1 0.0
 
Date/Time
EST
Temp
°C
App
Temp
°C
Dew
Point
°C
Rel
Hum
%
Delta-T
°C
Wind Press
QNH
hPa
Press
MSL
hPa
Rain since
9am
mm
Dir  Spd
km/h
Gust
km/h
Spd
kts
Gust
kts
02/11:30pm 6.7 3.9 5.2 90 0.7 SE 9 9 5 5 1020.1 1020.3 0.0
02/11:00pm 7.1 4.7 5.4 89 0.8 SE 7 9 4 5 1020.3 1020.5 0.0
02/10:30pm 8.0 5.8 6.1 88 0.9 SE 7 9 4 5 1020.4 1020.6 0.0
02/10:00pm 8.9 6.9 7.0 88 0.9 SE 7 9 4 5 1020.5 1020.7 0.0
02/09:30pm 9.3 7.0 7.4 88 0.9 SE 9 11 5 6 1020.7 1020.8 0.0

Other formats

Comma delimited format used in spreadsheet applications
http://www.bom.gov.au/fwo/IDV60801/IDV60801.94827.axf

JavaScript Object Notation format (JSON) in row-major order
http://www.bom.gov.au/fwo/IDV60801/IDV60801.94827.json

Data quality

Most of these data are generated automatically and are frequently updated. Quality checks on data are not normally performed. It is possible for incorrect values to appear. Refer to information at About Latest Weather Observations and please check the disclaimer before using these data.